sensor_id;sensor_type;location;lat;lon;timestamp;pressure;altitude;pressure_sealevel;temperature;humidity
38612;BME280;24368;52.156;20.788;2023-02-28T00:03:25;101929.86;;;-3.34;98.81
38612;BME280;24368;52.156;20.788;2023-02-28T00:08:27;101932.18;;;-3.39;99.48
38612;BME280;24368;52.156;20.788;2023-02-28T00:13:30;101939.14;;;-3.42;99.28
38612;BME280;24368;52.156;20.788;2023-02-28T00:18:32;101944.55;;;-3.46;100.00
38612;BME280;24368;52.156;20.788;2023-02-28T00:23:34;101946.19;;;-3.42;100.00
38612;BME280;24368;52.156;20.788;2023-02-28T00:28:36;101943.70;;;-3.38;100.00
38612;BME280;24368;52.156;20.788;2023-02-28T00:33:38;101943.30;;;-3.45;100.00
38612;BME280;24368;52.156;20.788;2023-02-28T00:38:40;101947.30;;;-3.47;100.00
38612;BME280;24368;52.156;20.788;2023-02-28T00:43:42;101944.02;;;-3.46;100.00
38612;BME280;24368;52.156;20.788;2023-02-28T00:48:44;101949.05;;;-3.49;100.00
38612;BME280;24368;52.156;20.788;2023-02-28T00:53:45;101952.31;;;-3.47;100.00
38612;BME280;24368;52.156;20.788;2023-02-28T00:58:47;101947.75;;;-3.54;100.00
38612;BME280;24368;52.156;20.788;2023-02-28T01:03:49;101948.38;;;-3.93;100.00
38612;BME280;24368;52.156;20.788;2023-02-28T01:08:51;101947.63;;;-3.89;100.00
38612;BME280;24368;52.156;20.788;2023-02-28T01:13:52;101945.45;;;-3.81;100.00
38612;BME280;24368;52.156;20.788;2023-02-28T01:18:54;101942.12;;;-3.78;100.00
38612;BME280;24368;52.156;20.788;2023-02-28T01:23:57;101943.80;;;-3.76;100.00
38612;BME280;24368;52.156;20.788;2023-02-28T01:28:59;101945.38;;;-3.89;100.00
38612;BME280;24368;52.156;20.788;2023-02-28T01:34:01;101943.45;;;-3.98;100.00
38612;BME280;24368;52.156;20.788;2023-02-28T01:39:03;101946.63;;;-4.04;100.00
38612;BME280;24368;52.156;20.788;2023-02-28T01:44:07;101946.64;;;-4.15;100.00
38612;BME280;24368;52.156;20.788;2023-02-28T01:49:28;101949.49;;;-4.11;100.00
38612;BME280;24368;52.156;20.788;2023-02-28T01:54:31;101952.78;;;-4.26;100.00
38612;BME280;24368;52.156;20.788;2023-02-28T01:59:41;101954.33;;;-4.12;100.00
38612;BME280;24368;52.156;20.788;2023-02-28T02:05:03;101950.27;;;-4.18;100.00
38612;BME280;24368;52.156;20.788;2023-02-28T02:10:20;101949.17;;;-4.26;100.00
38612;BME280;24368;52.156;20.788;2023-02-28T02:47:35;101948.70;;;-4.16;100.00
38612;BME280;24368;52.156;20.788;2023-02-28T02:52:42;101953.65;;;-4.13;100.00
38612;BME280;24368;52.156;20.788;2023-02-28T02:57:56;101957.61;;;-4.26;100.00
38612;BME280;24368;52.156;20.788;2023-02-28T03:03:01;101956.23;;;-4.39;100.00
38612;BME280;24368;52.156;20.788;2023-02-28T03:08:04;101964.59;;;-4.34;100.00
38612;BME280;24368;52.156;20.788;2023-02-28T03:29:35;101963.61;;;-4.66;100.00
38612;BME280;24368;52.156;20.788;2023-02-28T03:34:47;101965.58;;;-4.72;100.00
38612;BME280;24368;52.156;20.788;2023-02-28T03:39:58;101969.96;;;-4.82;100.00
38612;BME280;24368;52.156;20.788;2023-02-28T03:45:04;101976.14;;;-4.96;100.00
38612;BME280;24368;52.156;20.788;2023-02-28T03:50:20;101975.97;;;-4.80;100.00
38612;BME280;24368;52.156;20.788;2023-02-28T03:55:23;101976.98;;;-4.78;100.00
38612;BME280;24368;52.156;20.788;2023-02-28T04:00:35;101981.38;;;-4.89;100.00
38612;BME280;24368;52.156;20.788;2023-02-28T04:05:54;101979.44;;;-4.84;100.00
38612;BME280;24368;52.156;20.788;2023-02-28T04:11:18;101979.52;;;-4.74;100.00
38612;BME280;24368;52.156;20.788;2023-02-28T04:16:20;101981.22;;;-4.73;100.00
38612;BME280;24368;52.156;20.788;2023-02-28T04:21:22;101979.71;;;-4.77;100.00
38612;BME280;24368;52.156;20.788;2023-02-28T04:26:24;101978.58;;;-4.83;100.00
38612;BME280;24368;52.156;20.788;2023-02-28T04:31:26;101987.38;;;-4.85;100.00
38612;BME280;24368;52.156;20.788;2023-02-28T04:36:28;101987.67;;;-4.99;100.00
38612;BME280;24368;52.156;20.788;2023-02-28T04:41:30;101990.94;;;-4.98;100.00
38612;BME280;24368;52.156;20.788;2023-02-28T04:46:32;101993.11;;;-5.09;100.00
38612;BME280;24368;52.156;20.788;2023-02-28T04:51:34;101987.01;;;-5.18;100.00
38612;BME280;24368;52.156;20.788;2023-02-28T04:56:36;101988.02;;;-5.18;100.00
38612;BME280;24368;52.156;20.788;2023-02-28T05:01:37;101988.18;;;-5.16;100.00
38612;BME280;24368;52.156;20.788;2023-02-28T05:06:39;101991.90;;;-5.09;100.00
38612;BME280;24368;52.156;20.788;2023-02-28T05:11:41;101997.26;;;-5.12;100.00
38612;BME280;24368;52.156;20.788;2023-02-28T05:16:43;102000.48;;;-5.08;100.00
38612;BME280;24368;52.156;20.788;2023-02-28T05:21:53;102004.17;;;-4.99;100.00
38612;BME280;24368;52.156;20.788;2023-02-28T05:26:55;102012.07;;;-4.96;100.00
38612;BME280;24368;52.156;20.788;2023-02-28T05:31:57;102016.20;;;-4.98;100.00
38612;BME280;24368;52.156;20.788;2023-02-28T05:36:59;102019.66;;;-4.99;100.00
38612;BME280;24368;52.156;20.788;2023-02-28T05:42:01;102027.91;;;-4.99;100.00
38612;BME280;24368;52.156;20.788;2023-02-28T05:47:02;102036.53;;;-5.04;100.00
38612;BME280;24368;52.156;20.788;2023-02-28T05:52:04;102040.24;;;-5.15;100.00
38612;BME280;24368;52.156;20.788;2023-02-28T05:57:06;102042.93;;;-5.08;100.00
38612;BME280;24368;52.156;20.788;2023-02-28T06:02:16;102048.65;;;-4.95;100.00
38612;BME280;24368;52.156;20.788;2023-02-28T06:07:18;102048.27;;;-4.90;100.00
38612;BME280;24368;52.156;20.788;2023-02-28T06:12:19;102055.27;;;-4.85;100.00
38612;BME280;24368;52.156;20.788;2023-02-28T06:17:21;102059.52;;;-4.81;100.00
38612;BME280;24368;52.156;20.788;2023-02-28T06:22:23;102058.45;;;-4.76;100.00
38612;BME280;24368;52.156;20.788;2023-02-28T06:27:25;102059.41;;;-4.69;100.00
38612;BME280;24368;52.156;20.788;2023-02-28T06:32:26;102062.09;;;-4.61;100.00
38612;BME280;24368;52.156;20.788;2023-02-28T06:37:30;102061.69;;;-4.39;100.00
38612;BME280;24368;52.156;20.788;2023-02-28T06:42:32;102048.55;;;-4.19;100.00
38612;BME280;24368;52.156;20.788;2023-02-28T06:47:36;102047.66;;;-4.03;100.00
38612;BME280;24368;52.156;20.788;2023-02-28T06:52:38;102039.77;;;-3.91;100.00
38612;BME280;24368;52.156;20.788;2023-02-28T06:57:39;102043.23;;;-3.79;100.00
38612;BME280;24368;52.156;20.788;2023-02-28T07:02:41;102039.08;;;-3.65;100.00
38612;BME280;24368;52.156;20.788;2023-02-28T07:07:43;102033.20;;;-3.52;100.00
38612;BME280;24368;52.156;20.788;2023-02-28T07:12:48;102030.99;;;-3.43;100.00
38612;BME280;24368;52.156;20.788;2023-02-28T07:17:49;102029.50;;;-3.36;100.00
38612;BME280;24368;52.156;20.788;2023-02-28T07:22:51;102033.31;;;-3.27;100.00
38612;BME280;24368;52.156;20.788;2023-02-28T07:27:57;102038.45;;;-3.13;100.00
38612;BME280;24368;52.156;20.788;2023-02-28T07:33:00;102044.83;;;-3.02;100.00
38612;BME280;24368;52.156;20.788;2023-02-28T07:38:03;102046.26;;;-2.95;100.00
38612;BME280;24368;52.156;20.788;2023-02-28T07:43:05;102040.05;;;-2.76;100.00
38612;BME280;24368;52.156;20.788;2023-02-28T07:48:07;102033.09;;;-2.64;98.84
38612;BME280;24368;52.156;20.788;2023-02-28T07:53:11;102035.37;;;-2.56;97.46
38612;BME280;24368;52.156;20.788;2023-02-28T07:58:13;102038.90;;;-2.33;94.57
38612;BME280;24368;52.156;20.788;2023-02-28T08:03:15;102038.06;;;-2.17;91.77
38612;BME280;24368;52.156;20.788;2023-02-28T08:08:17;102037.95;;;-2.12;88.33
38612;BME280;24368;52.156;20.788;2023-02-28T08:13:19;102036.66;;;-2.08;87.23
38612;BME280;24368;52.156;20.788;2023-02-28T08:18:22;102037.38;;;-2.02;87.09
38612;BME280;24368;52.156;20.788;2023-02-28T08:23:24;102038.71;;;-1.99;85.79
38612;BME280;24368;52.156;20.788;2023-02-28T08:28:26;102035.05;;;-1.97;85.12
38612;BME280;24368;52.156;20.788;2023-02-28T08:33:27;102034.50;;;-1.88;84.88
38612;BME280;24368;52.156;20.788;2023-02-28T08:38:29;102029.98;;;-1.86;83.69
38612;BME280;24368;52.156;20.788;2023-02-28T08:43:31;102029.58;;;-1.84;84.34
38612;BME280;24368;52.156;20.788;2023-02-28T08:48:35;102032.30;;;-1.66;83.24
38612;BME280;24368;52.156;20.788;2023-02-28T08:53:40;102032.80;;;-1.57;82.21
38612;BME280;24368;52.156;20.788;2023-02-28T08:58:42;102032.77;;;-1.64;84.40
38612;BME280;24368;52.156;20.788;2023-02-28T09:03:46;102034.24;;;-1.46;84.70
38612;BME280;24368;52.156;20.788;2023-02-28T09:08:48;102032.63;;;-1.28;81.97
38612;BME280;24368;52.156;20.788;2023-02-28T09:13:50;102036.17;;;-1.18;80.98
38612;BME280;24368;52.156;20.788;2023-02-28T09:18:52;102035.60;;;-1.15;80.29
38612;BME280;24368;52.156;20.788;2023-02-28T09:23:54;102043.19;;;-1.08;79.11
38612;BME280;24368;52.156;20.788;2023-02-28T09:28:56;102047.33;;;-0.93;77.61
38612;BME280;24368;52.156;20.788;2023-02-28T09:34:00;102053.88;;;-0.92;76.93
38612;BME280;24368;52.156;20.788;2023-02-28T09:39:02;102045.65;;;-0.88;77.10
38612;BME280;24368;52.156;20.788;2023-02-28T09:44:05;102050.02;;;-0.70;76.57
38612;BME280;24368;52.156;20.788;2023-02-28T09:49:14;102049.55;;;-0.65;76.67
38612;BME280;24368;52.156;20.788;2023-02-28T09:54:21;102053.59;;;-0.55;76.40
38612;BME280;24368;52.156;20.788;2023-02-28T10:05:12;102047.39;;;-0.30;75.38
38612;BME280;24368;52.156;20.788;2023-02-28T10:15:29;102045.36;;;-0.14;74.18
38612;BME280;24368;52.156;20.788;2023-02-28T10:20:33;102040.61;;;-0.11;73.74
38612;BME280;24368;52.156;20.788;2023-02-28T10:25:37;102048.90;;;0.01;73.70
38612;BME280;24368;52.156;20.788;2023-02-28T10:30:51;102046.23;;;0.16;72.67
38612;BME280;24368;52.156;20.788;2023-02-28T10:35:53;102044.48;;;0.28;72.15
38612;BME280;24368;52.156;20.788;2023-02-28T10:41:16;102043.02;;;0.41;72.88
38612;BME280;24368;52.156;20.788;2023-02-28T10:46:19;102043.17;;;0.48;72.08
38612;BME280;24368;52.156;20.788;2023-02-28T10:51:38;102038.48;;;0.48;71.82
38612;BME280;24368;52.156;20.788;2023-02-28T10:56:41;102038.40;;;0.62;71.09
38612;BME280;24368;52.156;20.788;2023-02-28T11:01:45;102036.48;;;0.84;71.05
38612;BME280;24368;52.156;20.788;2023-02-28T11:06:58;102024.09;;;1.06;70.26
38612;BME280;24368;52.156;20.788;2023-02-28T11:12:02;102018.61;;;1.34;69.30
38612;BME280;24368;52.156;20.788;2023-02-28T11:17:24;102012.41;;;1.48;67.68
38612;BME280;24368;52.156;20.788;2023-02-28T11:22:28;102008.88;;;1.82;66.59
38612;BME280;24368;52.156;20.788;2023-02-28T11:32:35;102005.48;;;2.35;64.54
38612;BME280;24368;52.156;20.788;2023-02-28T11:37:38;101995.09;;;2.76;64.08
38612;BME280;24368;52.156;20.788;2023-02-28T11:48:20;101967.95;;;8.50;49.78
38612;BME280;24368;52.156;20.788;2023-02-28T12:04:16;101944.14;;;11.55;40.30
38612;BME280;24368;52.156;20.788;2023-02-28T12:31:00;101929.52;;;7.22;47.16
38612;BME280;24368;52.156;20.788;2023-02-28T12:36:07;101917.01;;;7.57;48.21
38612;BME280;24368;52.156;20.788;2023-02-28T12:46:24;101915.49;;;5.52;51.70
38612;BME280;24368;52.156;20.788;2023-02-28T12:51:28;101903.95;;;7.11;48.54
38612;BME280;24368;52.156;20.788;2023-02-28T13:12:32;101890.30;;;12.89;36.90
38612;BME280;24368;52.156;20.788;2023-02-28T13:17:35;101883.86;;;14.03;35.88
38612;BME280;24368;52.156;20.788;2023-02-28T13:22:42;101876.62;;;15.94;33.32
38612;BME280;24368;52.156;20.788;2023-02-28T13:27:45;101871.64;;;15.54;32.85
38612;BME280;24368;52.156;20.788;2023-02-28T13:38:35;101870.95;;;10.91;40.09
38612;BME280;24368;52.156;20.788;2023-02-28T13:44:08;101870.36;;;9.52;43.69
38612;BME280;24368;52.156;20.788;2023-02-28T14:05:14;101839.66;;;10.06;43.80
38612;BME280;24368;52.156;20.788;2023-02-28T14:10:42;101838.48;;;8.62;45.78
38612;BME280;24368;52.156;20.788;2023-02-28T14:15:48;101835.31;;;7.70;48.45
38612;BME280;24368;52.156;20.788;2023-02-28T14:21:10;101830.50;;;8.22;47.39
38612;BME280;24368;52.156;20.788;2023-02-28T14:32:02;101822.73;;;9.32;44.47
38612;BME280;24368;52.156;20.788;2023-02-28T14:37:05;101822.11;;;7.51;48.02
38612;BME280;24368;52.156;20.788;2023-02-28T14:42:34;101821.70;;;6.80;49.97
38612;BME280;24368;52.156;20.788;2023-02-28T14:47:37;101820.09;;;6.60;51.14
38612;BME280;24368;52.156;20.788;2023-02-28T14:52:43;101806.98;;;6.79;50.05
38612;BME280;24368;52.156;20.788;2023-02-28T14:57:56;101811.99;;;5.77;52.32
38612;BME280;24368;52.156;20.788;2023-02-28T15:03:00;101803.39;;;4.52;55.58
38612;BME280;24368;52.156;20.788;2023-02-28T15:08:13;101805.39;;;4.37;56.92
38612;BME280;24368;52.156;20.788;2023-02-28T15:13:16;101797.84;;;4.21;57.87
38612;BME280;24368;52.156;20.788;2023-02-28T15:23:48;101804.69;;;4.02;58.62
38612;BME280;24368;52.156;20.788;2023-02-28T15:28:57;101798.64;;;3.94;59.24
38612;BME280;24368;52.156;20.788;2023-02-28T15:34:05;101804.54;;;3.70;60.11
38612;BME280;24368;52.156;20.788;2023-02-28T15:39:26;101809.40;;;3.45;60.95
38612;BME280;24368;52.156;20.788;2023-02-28T15:44:33;101807.89;;;3.25;61.22
38612;BME280;24368;52.156;20.788;2023-02-28T15:50:00;101805.14;;;2.86;62.77
38612;BME280;24368;52.156;20.788;2023-02-28T15:55:19;101810.92;;;2.74;64.64
38612;BME280;24368;52.156;20.788;2023-02-28T16:00:23;101807.14;;;2.52;66.16
38612;BME280;24368;52.156;20.788;2023-02-28T16:05:29;101804.48;;;2.25;68.19
38612;BME280;24368;52.156;20.788;2023-02-28T16:10:35;101801.42;;;2.11;69.07
38612;BME280;24368;52.156;20.788;2023-02-28T16:15:38;101804.89;;;1.86;69.29
38612;BME280;24368;52.156;20.788;2023-02-28T16:20:43;101810.54;;;1.71;70.28
38612;BME280;24368;52.156;20.788;2023-02-28T16:25:46;101813.25;;;1.68;70.61
38612;BME280;24368;52.156;20.788;2023-02-28T16:30:51;101821.47;;;1.63;71.62
38612;BME280;24368;52.156;20.788;2023-02-28T16:35:53;101819.24;;;1.57;72.83
38612;BME280;24368;52.156;20.788;2023-02-28T16:40:58;101817.33;;;1.48;74.58
38612;BME280;24368;52.156;20.788;2023-02-28T16:46:01;101824.80;;;1.35;76.47
38612;BME280;24368;52.156;20.788;2023-02-28T16:51:05;101829.43;;;1.27;77.50
38612;BME280;24368;52.156;20.788;2023-02-28T16:56:19;101821.19;;;1.16;77.33
38612;BME280;24368;52.156;20.788;2023-02-28T17:01:22;101819.36;;;0.95;77.79
38612;BME280;24368;52.156;20.788;2023-02-28T17:06:26;101820.56;;;0.76;78.55
38612;BME280;24368;52.156;20.788;2023-02-28T17:11:30;101825.56;;;0.71;78.63
38612;BME280;24368;52.156;20.788;2023-02-28T17:16:36;101831.17;;;0.76;79.17
38612;BME280;24368;52.156;20.788;2023-02-28T17:21:42;101837.70;;;0.77;78.99
38612;BME280;24368;52.156;20.788;2023-02-28T17:26:45;101845.73;;;0.76;79.17
38612;BME280;24368;52.156;20.788;2023-02-28T17:31:47;101848.13;;;0.67;81.39
38612;BME280;24368;52.156;20.788;2023-02-28T17:36:50;101851.80;;;0.70;81.18
38612;BME280;24368;52.156;20.788;2023-02-28T17:41:54;101852.73;;;0.74;81.06
38612;BME280;24368;52.156;20.788;2023-02-28T17:46:57;101840.94;;;0.64;82.29
38612;BME280;24368;52.156;20.788;2023-02-28T17:51:59;101842.91;;;0.67;81.37
38612;BME280;24368;52.156;20.788;2023-02-28T17:57:01;101844.63;;;0.53;82.76
38612;BME280;24368;52.156;20.788;2023-02-28T18:02:03;101841.86;;;0.06;86.95
38612;BME280;24368;52.156;20.788;2023-02-28T18:07:09;101843.55;;;-0.25;87.17
38612;BME280;24368;52.156;20.788;2023-02-28T18:12:13;101838.89;;;-0.36;87.57
38612;BME280;24368;52.156;20.788;2023-02-28T18:17:15;101829.86;;;-0.30;89.29
38612;BME280;24368;52.156;20.788;2023-02-28T18:22:17;101819.14;;;-0.15;90.12
38612;BME280;24368;52.156;20.788;2023-02-28T18:27:19;101813.25;;;-0.31;89.55
38612;BME280;24368;52.156;20.788;2023-02-28T18:32:21;101810.34;;;-0.77;90.77
38612;BME280;24368;52.156;20.788;2023-02-28T18:37:23;101803.36;;;-0.98;91.68
38612;BME280;24368;52.156;20.788;2023-02-28T18:42:25;101805.46;;;-1.05;92.82
38612;BME280;24368;52.156;20.788;2023-02-28T18:47:27;101798.37;;;-0.99;92.33
38612;BME280;24368;52.156;20.788;2023-02-28T18:52:28;101783.13;;;-1.29;93.50
38612;BME280;24368;52.156;20.788;2023-02-28T18:57:30;101779.34;;;-1.23;95.28
38612;BME280;24368;52.156;20.788;2023-02-28T19:02:32;101779.11;;;-1.09;94.41
38612;BME280;24368;52.156;20.788;2023-02-28T19:07:34;101770.20;;;-1.12;93.95
38612;BME280;24368;52.156;20.788;2023-02-28T19:12:37;101777.66;;;-1.37;95.21
38612;BME280;24368;52.156;20.788;2023-02-28T19:17:39;101775.86;;;-1.34;94.47
38612;BME280;24368;52.156;20.788;2023-02-28T19:22:41;101786.34;;;-1.20;95.15
38612;BME280;24368;52.156;20.788;2023-02-28T19:27:44;101797.68;;;-1.05;92.92
38612;BME280;24368;52.156;20.788;2023-02-28T19:32:47;101803.05;;;-0.94;92.60
38612;BME280;24368;52.156;20.788;2023-02-28T19:37:49;101809.08;;;-0.99;92.95
38612;BME280;24368;52.156;20.788;2023-02-28T19:42:53;101820.91;;;-1.19;94.44
38612;BME280;24368;52.156;20.788;2023-02-28T19:47:55;101824.17;;;-1.12;95.16
38612;BME280;24368;52.156;20.788;2023-02-28T19:52:56;101822.80;;;-1.13;95.51
38612;BME280;24368;52.156;20.788;2023-02-28T19:57:59;101822.45;;;-1.19;95.32
38612;BME280;24368;52.156;20.788;2023-02-28T20:03:00;101819.38;;;-1.39;97.17
38612;BME280;24368;52.156;20.788;2023-02-28T20:08:03;101822.96;;;-1.38;96.73
38612;BME280;24368;52.156;20.788;2023-02-28T20:13:05;101833.42;;;-1.34;95.73
38612;BME280;24368;52.156;20.788;2023-02-28T20:18:07;101829.77;;;-1.40;96.02
38612;BME280;24368;52.156;20.788;2023-02-28T20:23:08;101836.27;;;-1.50;96.39
38612;BME280;24368;52.156;20.788;2023-02-28T20:28:10;101833.37;;;-1.65;98.27
38612;BME280;24368;52.156;20.788;2023-02-28T20:33:13;101825.14;;;-1.67;99.14
38612;BME280;24368;52.156;20.788;2023-02-28T20:38:14;101824.20;;;-1.45;98.60
38612;BME280;24368;52.156;20.788;2023-02-28T20:43:16;101824.64;;;-1.36;98.01
38612;BME280;24368;52.156;20.788;2023-02-28T20:48:18;101818.59;;;-1.48;98.18
38612;BME280;24368;52.156;20.788;2023-02-28T20:53:22;101803.33;;;-1.66;99.25
38612;BME280;24368;52.156;20.788;2023-02-28T20:58:27;101797.31;;;-1.94;99.93
38612;BME280;24368;52.156;20.788;2023-02-28T21:03:30;101800.59;;;-1.94;100.00
38612;BME280;24368;52.156;20.788;2023-02-28T21:08:34;101810.71;;;-1.98;100.00
38612;BME280;24368;52.156;20.788;2023-02-28T21:13:37;101819.09;;;-1.95;100.00
38612;BME280;24368;52.156;20.788;2023-02-28T21:18:39;101814.34;;;-1.77;100.00
38612;BME280;24368;52.156;20.788;2023-02-28T21:23:41;101814.58;;;-1.74;100.00
38612;BME280;24368;52.156;20.788;2023-02-28T21:28:48;101804.27;;;-1.76;100.00
38612;BME280;24368;52.156;20.788;2023-02-28T21:33:52;101802.00;;;-1.82;100.00
38612;BME280;24368;52.156;20.788;2023-02-28T21:39:01;101807.72;;;-2.03;100.00
38612;BME280;24368;52.156;20.788;2023-02-28T21:44:04;101801.73;;;-2.12;100.00
38612;BME280;24368;52.156;20.788;2023-02-28T21:49:06;101798.18;;;-2.23;100.00
38612;BME280;24368;52.156;20.788;2023-02-28T21:54:08;101800.46;;;-2.39;100.00
38612;BME280;24368;52.156;20.788;2023-02-28T21:59:11;101807.59;;;-2.41;100.00
38612;BME280;24368;52.156;20.788;2023-02-28T22:04:15;101807.70;;;-2.38;100.00
38612;BME280;24368;52.156;20.788;2023-02-28T22:09:24;101814.60;;;-2.45;100.00
38612;BME280;24368;52.156;20.788;2023-02-28T22:14:26;101813.15;;;-2.43;100.00
38612;BME280;24368;52.156;20.788;2023-02-28T22:19:28;101810.55;;;-2.42;100.00
38612;BME280;24368;52.156;20.788;2023-02-28T22:24:30;101805.41;;;-2.51;100.00
38612;BME280;24368;52.156;20.788;2023-02-28T22:29:32;101796.56;;;-2.49;100.00
38612;BME280;24368;52.156;20.788;2023-02-28T22:34:33;101795.70;;;-2.49;100.00
38612;BME280;24368;52.156;20.788;2023-02-28T22:39:35;101794.08;;;-2.46;100.00
38612;BME280;24368;52.156;20.788;2023-02-28T22:44:37;101793.41;;;-2.47;100.00
38612;BME280;24368;52.156;20.788;2023-02-28T22:49:39;101784.61;;;-2.39;100.00
38612;BME280;24368;52.156;20.788;2023-02-28T22:54:41;101785.39;;;-2.43;100.00
38612;BME280;24368;52.156;20.788;2023-02-28T22:59:43;101790.61;;;-2.53;100.00
38612;BME280;24368;52.156;20.788;2023-02-28T23:04:44;101789.05;;;-2.68;100.00
38612;BME280;24368;52.156;20.788;2023-02-28T23:09:47;101797.69;;;-2.76;100.00
38612;BME280;24368;52.156;20.788;2023-02-28T23:14:52;101795.48;;;-2.85;100.00
38612;BME280;24368;52.156;20.788;2023-02-28T23:19:53;101800.95;;;-2.84;100.00
38612;BME280;24368;52.156;20.788;2023-02-28T23:24:55;101807.34;;;-2.84;100.00
38612;BME280;24368;52.156;20.788;2023-02-28T23:29:57;101815.95;;;-2.91;100.00
38612;BME280;24368;52.156;20.788;2023-02-28T23:34:59;101808.80;;;-2.95;100.00
38612;BME280;24368;52.156;20.788;2023-02-28T23:40:01;101808.56;;;-2.92;100.00
38612;BME280;24368;52.156;20.788;2023-02-28T23:45:05;101793.27;;;-2.95;100.00
38612;BME280;24368;52.156;20.788;2023-02-28T23:50:08;101795.27;;;-2.92;100.00
38612;BME280;24368;52.156;20.788;2023-02-28T23:55:10;101800.48;;;-2.85;100.00
